createdAt,value
2022-09-01T00:02:20.025Z,99.90
2022-09-01T00:04:47.531Z,99.90
2022-09-01T00:07:14.693Z,99.90
2022-09-01T00:09:41.485Z,99.90
2022-09-01T00:12:09.364Z,99.90
2022-09-01T00:14:41.634Z,99.90
2022-09-01T00:17:10.720Z,99.90
2022-09-01T00:19:40.047Z,99.90
2022-09-01T00:22:08.226Z,99.90
2022-09-01T00:24:35.377Z,99.90
2022-09-01T00:27:02.120Z,99.90
2022-09-01T00:29:29.225Z,99.90
2022-09-01T00:31:55.983Z,99.90
2022-09-01T00:34:23.095Z,99.90
2022-09-01T00:36:50.027Z,99.90
2022-09-01T00:39:16.824Z,99.90
2022-09-01T00:41:44.981Z,99.90
2022-09-01T00:44:16.516Z,99.90
2022-09-01T00:46:50.327Z,99.90
2022-09-01T00:49:36.414Z,99.90
2022-09-01T00:52:09.490Z,99.90
2022-09-01T00:54:41.278Z,99.90
2022-09-01T00:57:09.994Z,99.90
2022-09-01T00:59:42.936Z,99.90
2022-09-01T01:02:10.927Z,99.90
2022-09-01T01:04:37.986Z,99.90
2022-09-01T01:07:06.592Z,99.90
2022-09-01T01:09:38.695Z,99.90
2022-09-01T01:12:06.781Z,99.90
2022-09-01T01:14:36.824Z,99.90
2022-09-01T01:17:04.033Z,99.90
2022-09-01T01:20:03.862Z,99.90
2022-09-01T01:23:03.784Z,99.90
2022-09-01T01:25:32.450Z,99.90
2022-09-01T01:28:22.304Z,99.90
2022-09-01T01:31:01.585Z,99.90
2022-09-01T01:33:40.633Z,99.90
2022-09-01T01:36:12.991Z,99.90
2022-09-01T01:38:43.116Z,99.90
2022-09-01T01:41:11.745Z,99.90
2022-09-01T01:43:39.540Z,99.90
2022-09-01T01:46:09.577Z,99.90
2022-09-01T01:48:41.535Z,99.90
2022-09-01T01:51:11.801Z,99.90
2022-09-01T01:53:40.845Z,99.90
2022-09-01T01:56:08.958Z,99.90
2022-09-01T01:58:36.461Z,99.90
2022-09-01T02:01:11.855Z,99.90
2022-09-01T02:03:39.446Z,99.90
2022-09-01T02:06:09.576Z,99.90
2022-09-01T02:08:38.622Z,99.90
2022-09-01T02:11:07.022Z,99.90
2022-09-01T02:13:35.119Z,99.90
2022-09-01T02:16:12.984Z,99.90
2022-09-01T02:18:47.946Z,99.90
2022-09-01T02:21:19.572Z,99.90
2022-09-01T02:23:49.611Z,99.90
2022-09-01T02:26:18.980Z,99.90
2022-09-01T02:28:55.361Z,99.90
2022-09-01T02:31:28.043Z,99.90
2022-09-01T02:33:55.970Z,99.90
2022-09-01T02:36:25.608Z,99.90
2022-09-01T02:38:56.506Z,99.90
2022-09-01T02:41:25.065Z,99.90
2022-09-01T02:43:52.065Z,99.90
2022-09-01T02:46:23.587Z,99.90
2022-09-01T02:48:52.309Z,99.90
2022-09-01T02:51:22.574Z,99.90
2022-09-01T02:53:52.151Z,99.90
2022-09-01T02:56:25.001Z,99.90
2022-09-01T02:58:52.391Z,99.90
2022-09-01T03:01:24.779Z,99.90
2022-09-01T03:03:55.348Z,99.90
2022-09-01T03:06:24.399Z,99.90
2022-09-01T03:08:59.566Z,99.90
2022-09-01T03:11:29.483Z,99.90
2022-09-01T03:13:56.682Z,99.90
2022-09-01T03:16:23.862Z,99.90
2022-09-01T03:18:52.122Z,99.90
2022-09-01T03:21:20.440Z,99.90
2022-09-01T03:23:48.730Z,99.90
2022-09-01T03:26:18.657Z,99.90
2022-09-01T03:28:46.460Z,99.90
2022-09-01T03:31:13.324Z,99.90
2022-09-01T03:33:40.854Z,99.90
2022-09-01T03:36:19.598Z,99.90
2022-09-01T03:38:49.104Z,99.90
2022-09-01T03:41:21.575Z,99.90
2022-09-01T03:43:49.341Z,99.90
2022-09-01T03:46:23.022Z,99.90
2022-09-01T03:48:58.519Z,99.90
2022-09-01T03:51:27.068Z,99.90
2022-09-01T03:53:55.042Z,99.90
2022-09-01T03:56:28.209Z,99.90
2022-09-01T03:58:57.863Z,99.90
2022-09-01T04:01:27.875Z,99.90
2022-09-01T04:03:55.265Z,99.90
2022-09-01T04:06:30.898Z,99.90
2022-09-01T04:09:02.480Z,99.90
2022-09-01T04:11:31.907Z,99.90
2022-09-01T04:13:59.558Z,99.90
2022-09-01T04:16:51.551Z,99.90
2022-09-01T04:19:25.111Z,99.90
2022-09-01T04:21:57.616Z,99.90
2022-09-01T04:24:31.026Z,99.90
2022-09-01T04:27:02.107Z,99.90
2022-09-01T04:29:29.988Z,99.90
2022-09-01T04:32:05.497Z,99.90
2022-09-01T04:34:41.623Z,99.90
2022-09-01T04:37:21.482Z,99.90
2022-09-01T04:39:57.395Z,99.90
2022-09-01T04:42:29.288Z,99.90
2022-09-01T04:44:58.334Z,99.90
2022-09-01T04:47:35.943Z,99.90
2022-09-01T04:50:14.148Z,99.90
2022-09-01T04:52:44.633Z,99.90
2022-09-01T04:55:20.920Z,99.90
2022-09-01T04:57:49.727Z,99.90
2022-09-01T05:00:22.952Z,99.90
2022-09-01T05:03:04.561Z,99.90
2022-09-01T05:05:50.977Z,99.90
2022-09-01T05:08:24.282Z,99.90
2022-09-01T05:10:55.754Z,99.90
2022-09-01T05:13:39.635Z,99.90
2022-09-01T05:16:13.236Z,99.90
2022-09-01T05:18:45.534Z,99.90
2022-09-01T05:21:16.271Z,99.90
2022-09-01T05:23:44.292Z,99.90
2022-09-01T05:26:18.158Z,99.90
2022-09-01T05:28:48.191Z,99.90
2022-09-01T05:31:28.418Z,99.90
2022-09-01T05:34:49.921Z,99.90
2022-09-01T05:37:17.201Z,99.90
2022-09-01T05:42:40.614Z,99.90
2022-09-01T05:45:23.704Z,99.90
2022-09-01T05:52:17.276Z,99.90
2022-09-01T05:59:24.697Z,99.90
2022-09-01T06:03:04.845Z,99.90
2022-09-01T06:09:47.399Z,99.90
2022-09-01T06:16:47.613Z,99.90
2022-09-01T06:26:50.955Z,99.90
2022-09-01T06:33:55.258Z,99.90
2022-09-01T06:37:16.429Z,99.90
2022-09-01T06:43:37.663Z,99.90
2022-09-01T06:50:07.909Z,99.90
2022-09-01T07:00:43.627Z,99.90
2022-09-01T07:03:30.208Z,99.90
2022-09-01T07:27:15.444Z,99.90
2022-09-01T07:30:01.974Z,99.90
2022-09-01T07:33:41.530Z,99.90
2022-09-01T07:51:42.117Z,99.90
2022-09-01T07:54:13.965Z,99.90
2022-09-01T07:56:50.761Z,99.90
2022-09-01T07:59:28.504Z,99.90
2022-09-01T08:02:26.587Z,99.90
2022-09-01T08:06:01.763Z,99.90
2022-09-01T08:14:22.772Z,99.90
2022-09-01T08:17:34.804Z,99.90
2022-09-01T08:20:28.388Z,99.90
2022-09-01T08:23:26.437Z,99.90
2022-09-01T08:26:20.298Z,99.90
2022-09-01T08:31:43.752Z,99.90
2022-09-01T08:34:43.133Z,99.90
2022-09-01T08:40:04.092Z,99.90
2022-09-01T08:43:25.035Z,99.90
2022-09-01T08:46:28.810Z,99.90
2022-09-01T08:49:47.915Z,99.90
2022-09-01T08:52:53.015Z,99.90
2022-09-01T08:55:58.516Z,99.90
2022-09-01T08:58:50.798Z,99.90
2022-09-01T09:02:16.378Z,99.90
2022-09-01T09:05:21.399Z,99.90
2022-09-01T09:08:19.218Z,99.90
2022-09-01T09:11:19.295Z,99.90
2022-09-01T09:17:46.678Z,99.90
2022-09-01T09:20:41.084Z,99.90
2022-09-01T09:23:48.643Z,99.90
2022-09-01T09:26:47.691Z,99.90
2022-09-01T09:29:27.311Z,99.90
2022-09-01T09:34:52.352Z,99.90
2022-09-01T09:37:46.961Z,99.90
2022-09-01T09:40:47.919Z,99.90
2022-09-01T09:43:42.217Z,99.90
2022-09-01T09:46:36.831Z,99.90
2022-09-01T09:49:42.342Z,99.90
2022-09-01T09:52:21.480Z,99.90
2022-09-01T09:55:22.253Z,99.90
2022-09-01T09:58:13.725Z,99.90
2022-09-01T10:00:57.820Z,99.90
2022-09-01T10:03:58.998Z,99.90
2022-09-01T10:06:41.951Z,99.90
2022-09-01T10:09:49.989Z,99.90
2022-09-01T10:12:29.705Z,99.90
2022-09-01T10:15:14.135Z,99.90
2022-09-01T10:18:32.581Z,99.90
2022-09-01T10:21:53.549Z,99.90
2022-09-01T10:24:45.862Z,99.90
2022-09-01T10:27:44.763Z,99.90
2022-09-01T10:30:37.250Z,99.90
2022-09-01T10:33:30.419Z,99.90
2022-09-01T10:36:08.785Z,99.90
2022-09-01T10:38:39.943Z,99.90
2022-09-01T10:41:14.307Z,99.90
2022-09-01T10:43:58.711Z,99.90
2022-09-01T10:46:40.655Z,99.90
2022-09-01T10:52:19.210Z,99.90
2022-09-01T10:55:00.310Z,99.90
2022-09-01T11:01:49.268Z,99.90
2022-09-01T11:04:40.142Z,99.90
2022-09-01T11:08:00.467Z,99.90
2022-09-01T11:11:31.574Z,99.90
2022-09-01T11:14:51.409Z,99.90
2022-09-01T11:17:47.747Z,99.90
2022-09-01T11:20:45.927Z,99.90
2022-09-01T11:23:30.994Z,99.90
2022-09-01T11:26:30.109Z,99.90
2022-09-01T11:29:40.673Z,99.90
2022-09-01T11:32:58.609Z,99.90
2022-09-01T11:35:33.267Z,99.90
2022-09-01T11:38:14.346Z,99.90
2022-09-01T11:40:42.092Z,99.90
2022-09-01T11:44:22.279Z,99.90
2022-09-01T11:47:03.881Z,99.90
2022-09-01T11:50:03.055Z,99.90
2022-09-01T11:52:41.754Z,99.90
2022-09-01T11:55:10.414Z,99.90
2022-09-01T11:58:25.310Z,99.90
2022-09-01T12:01:47.322Z,99.90
2022-09-01T12:05:08.078Z,99.90
2022-09-01T12:07:50.207Z,99.90
2022-09-01T12:14:20.215Z,99.90
2022-09-01T12:17:13.450Z,99.90
2022-09-01T12:23:40.209Z,99.90
2022-09-01T12:27:17.945Z,99.90
2022-09-01T12:30:58.907Z,99.90
2022-09-01T12:33:58.129Z,99.50
2022-09-01T12:36:35.905Z,99.60
2022-09-01T12:40:04.501Z,99.70
2022-09-01T12:45:46.723Z,99.90
2022-09-01T12:48:33.466Z,99.90
2022-09-01T12:51:29.227Z,99.80
2022-09-01T12:54:04.722Z,99.90
2022-09-01T12:57:06.510Z,99.70
2022-09-01T12:59:36.140Z,99.90
2022-09-01T13:03:10.813Z,99.90
2022-09-01T13:05:53.467Z,99.90
2022-09-01T13:08:34.848Z,99.90
2022-09-01T13:11:15.174Z,99.80
2022-09-01T13:14:54.641Z,99.70
2022-09-01T13:17:55.233Z,99.60
2022-09-01T13:20:44.423Z,99.70
2022-09-01T13:24:28.706Z,99.40
2022-09-01T13:27:22.082Z,99.50
2022-09-01T13:29:56.253Z,99.70
2022-09-01T13:32:26.236Z,99.80
2022-09-01T13:35:24.681Z,99.70
2022-09-01T13:38:01.608Z,99.60
2022-09-01T13:43:34.269Z,99.50
2022-09-01T13:46:25.357Z,99.60
2022-09-01T13:49:05.008Z,99.70
2022-09-01T13:56:32.890Z,99.30
2022-09-01T14:07:02.153Z,99.40
2022-09-01T14:12:22.980Z,99.60
2022-09-01T14:15:15.931Z,98.90
2022-09-01T14:17:46.081Z,98.60
2022-09-01T14:20:43.023Z,98.40
2022-09-01T14:24:07.393Z,98.10
2022-09-01T14:27:03.911Z,98.00
2022-09-01T14:29:30.797Z,97.80
2022-09-01T14:36:47.153Z,97.80
2022-09-01T14:42:16.150Z,96.10
2022-09-01T14:45:15.464Z,95.70
2022-09-01T14:50:50.764Z,95.70
2022-09-01T14:53:55.369Z,95.30
2022-09-01T14:56:37.613Z,94.90
2022-09-01T15:02:42.249Z,94.40
2022-09-01T15:05:39.471Z,94.40
2022-09-01T15:08:20.250Z,93.90
2022-09-01T15:10:47.397Z,94.10
2022-09-01T15:14:21.673Z,94.10
2022-09-01T15:16:48.505Z,94.40
2022-09-01T15:20:27.689Z,94.10
2022-09-01T15:22:55.686Z,94.10
2022-09-01T15:25:32.469Z,93.50
2022-09-01T15:29:13.913Z,92.70
2022-09-01T15:32:09.407Z,93.00
2022-09-01T15:39:37.735Z,93.30
2022-09-01T15:45:21.172Z,93.00
2022-09-01T15:48:12.606Z,92.40
2022-09-01T15:50:42.490Z,91.60
2022-09-01T15:53:19.157Z,91.30
2022-09-01T16:00:22.385Z,91.10
2022-09-01T16:07:45.801Z,91.20
2022-09-01T16:13:08.865Z,91.30
2022-09-01T16:20:05.730Z,91.50
2022-09-01T16:26:52.114Z,91.40
2022-09-01T16:29:56.687Z,90.90
2022-09-01T16:32:37.057Z,91.00
2022-09-01T16:35:21.386Z,91.40
2022-09-01T16:43:16.776Z,91.40
2022-09-01T16:58:22.825Z,91.80
2022-09-01T17:13:16.430Z,92.50
2022-09-01T17:16:12.832Z,93.00
2022-09-01T17:18:50.341Z,93.10
2022-09-01T17:41:47.040Z,94.50
2022-09-01T17:49:03.264Z,95.10
2022-09-01T17:52:29.375Z,95.30
2022-09-01T18:05:50.630Z,95.70
2022-09-01T18:09:34.580Z,96.00
2022-09-01T18:12:53.047Z,96.10
2022-09-01T18:16:22.697Z,96.20
2022-09-01T18:26:27.173Z,96.60
2022-09-01T18:37:26.908Z,96.90
2022-09-01T18:45:11.539Z,97.20
2022-09-01T18:53:51.865Z,97.20
2022-09-01T18:57:10.235Z,97.30
2022-09-01T19:00:18.750Z,97.30
2022-09-01T19:03:18.939Z,97.40
2022-09-01T19:06:32.155Z,97.60
2022-09-01T19:09:19.577Z,97.70
2022-09-01T19:19:39.109Z,98.10
2022-09-01T19:25:43.880Z,98.30
2022-09-01T19:51:50.447Z,99.40
2022-09-01T19:54:30.711Z,99.50
2022-09-01T19:57:18.070Z,99.80
2022-09-01T20:07:36.876Z,99.90
2022-09-01T20:14:29.214Z,99.90
2022-09-01T20:23:28.251Z,99.90
2022-09-01T20:26:12.422Z,99.90
2022-09-01T20:30:15.531Z,99.90
2022-09-01T20:33:16.583Z,99.90
2022-09-01T20:36:35.051Z,99.90
2022-09-01T20:40:08.748Z,99.90
2022-09-01T20:43:22.979Z,99.90
2022-09-01T20:45:50.677Z,99.90
2022-09-01T20:48:26.469Z,99.90
2022-09-01T20:51:15.003Z,99.90
2022-09-01T20:54:00.404Z,99.90
2022-09-01T20:56:51.887Z,99.90
2022-09-01T20:59:51.868Z,99.90
2022-09-01T21:02:34.698Z,99.90
2022-09-01T21:05:44.680Z,99.90
2022-09-01T21:08:17.909Z,99.90
2022-09-01T21:10:47.636Z,99.90
2022-09-01T21:13:44.269Z,99.90
2022-09-01T21:16:26.694Z,99.90
2022-09-01T21:19:33.708Z,99.90
2022-09-01T21:22:06.298Z,99.90
2022-09-01T21:24:33.678Z,99.90
2022-09-01T21:27:07.209Z,99.90
2022-09-01T21:29:43.850Z,99.90
2022-09-01T21:32:13.761Z,99.90
2022-09-01T21:34:40.739Z,99.90
2022-09-01T21:37:07.425Z,99.90
2022-09-01T21:39:34.227Z,99.90
2022-09-01T21:42:01.163Z,99.90
2022-09-01T21:44:29.565Z,99.90
2022-09-01T21:46:57.529Z,99.90
2022-09-01T21:49:24.418Z,99.90
2022-09-01T21:51:51.126Z,99.90
2022-09-01T21:54:18.994Z,99.90
2022-09-01T21:56:46.371Z,99.90
2022-09-01T21:59:16.968Z,99.90
2022-09-01T22:01:44.854Z,99.90
2022-09-01T22:04:12.057Z,99.90
2022-09-01T22:06:40.166Z,99.90
2022-09-01T22:09:20.802Z,99.90
2022-09-01T22:11:49.286Z,99.90
2022-09-01T22:14:16.667Z,99.90
2022-09-01T22:16:43.934Z,99.90
2022-09-01T22:19:10.760Z,99.90
2022-09-01T22:21:38.421Z,99.90
2022-09-01T22:24:06.195Z,99.90
2022-09-01T22:26:33.721Z,99.90
2022-09-01T22:29:02.240Z,99.90
2022-09-01T22:31:31.052Z,99.90
2022-09-01T22:33:58.348Z,99.90
2022-09-01T22:36:31.818Z,99.90
2022-09-01T22:38:59.658Z,99.90
2022-09-01T22:41:28.339Z,99.90
2022-09-01T22:43:55.137Z,99.90
2022-09-01T22:46:22.378Z,99.90
2022-09-01T22:48:49.404Z,99.90
2022-09-01T22:51:17.488Z,99.90
2022-09-01T22:53:45.835Z,99.90
2022-09-01T22:56:20.267Z,99.90
2022-09-01T22:58:48.730Z,99.90
2022-09-01T23:01:20.285Z,99.90
2022-09-01T23:03:47.642Z,99.90
2022-09-01T23:06:27.630Z,99.90
2022-09-01T23:08:56.017Z,99.90
2022-09-01T23:11:23.067Z,99.90
2022-09-01T23:13:49.905Z,99.90
2022-09-01T23:16:16.993Z,99.90
2022-09-01T23:18:46.780Z,99.90
2022-09-01T23:21:16.159Z,99.90
2022-09-01T23:23:42.930Z,99.90
2022-09-01T23:26:11.532Z,99.90
2022-09-01T23:28:40.270Z,99.90
2022-09-01T23:31:09.897Z,99.90
2022-09-01T23:33:36.896Z,99.90
2022-09-01T23:36:09.717Z,99.90
2022-09-01T23:38:37.474Z,99.90
2022-09-01T23:41:10.423Z,99.90
2022-09-01T23:43:38.046Z,99.90
2022-09-01T23:46:05.587Z,99.90
2022-09-01T23:48:32.856Z,99.90
2022-09-01T23:51:08.438Z,99.90
2022-09-01T23:53:36.416Z,99.90
2022-09-01T23:56:08.054Z,99.90
2022-09-01T23:58:34.743Z,99.90
